Governador Dix-Sept Rosado, Brazil
Current Conditions -  °F | °C
As of 1:00 PM on Sunday 21 Dec 2014 (Local Time) from SBFZ Reporting Station
Scattered Clouds Scattered Clouds  
Wind Chill: 86°   Ceiling: Unl
Heat Index: 89°   Visibility: 6mi
Dew Point: 68°   Wind: 21mph
Humidity: 55%   Direction: 100°E
Pressure: 29.88"   Gusts: NA
Location:  5.45°S, 37.52°W
Report Text: SBFZ 211600Z 10018KT 9999 SCT030 30/20 Q1012
Loading
Personal Weather Stations






























Interactive Weather Map New forecast layout! Learn more

10-Day Weather Forecast

Advertisements
Track Severe Weather on mobile